Time;durP1;ratioP1;P1;durP2;ratioP2;P2;SDS_P1;SDS_P2;PMS_P1;PMS_P2;Temp;Humidity;BMP_temperature;BMP_pressure;BME280_temperature;BME280_humidity;BME280_pressure;Samples;Min_cycle;Max_cycle;Signal;HPM_P1;HPM_P2
2022/04/08 00:09:58;;;;;;;18.97;9.90;;;;;;;9.45;61.26;98832.59;31194454;28;20053;-75
2022/04/08 00:25:00;;;;;;;16.77;10.47;;;;;;;9.23;63.00;98827.16;31213548;28;20058;-75
2022/04/08 00:40:04;;;;;;;16.00;10.30;;;;;;;9.12;65.45;98821.38;31208542;28;20486;-75
2022/04/08 00:55:06;;;;;;;17.30;9.57;;;;;;;9.02;68.18;98812.41;31205648;28;20077;-75
2022/04/08 01:10:09;;;;;;;17.83;9.60;;;;;;;8.85;69.49;98819.16;31170954;28;20066;-74
2022/04/08 01:25:12;;;;;;;14.13;8.10;;;;;;;8.58;71.20;98789.16;31190107;28;20084;-76
2022/04/08 01:40:14;;;;;;;18.97;10.20;;;;;;;8.41;72.78;98761.50;31212011;28;20107;-76
2022/04/08 01:55:16;;;;;;;19.20;9.80;;;;;;;7.82;75.29;98755.53;31194753;28;20400;-76
2022/04/08 02:10:18;;;;;;;15.03;8.07;;;;;;;7.58;79.41;98740.81;31195403;28;20062;-76
2022/04/08 02:25:20;;;;;;;17.87;9.97;;;;;;;7.58;79.20;98716.50;31208203;28;20057;-75
2022/04/08 02:40:22;;;;;;;16.07;9.00;;;;;;;7.44;80.58;98711.53;31240708;28;20053;-76
2022/04/08 02:55:24;;;;;;;17.27;9.07;;;;;;;7.37;80.57;98719.84;31221261;28;20528;-75
2022/04/08 03:10:26;;;;;;;16.37;9.07;;;;;;;7.25;84.28;98699.00;31192850;28;20054;-75
2022/04/08 03:25:28;;;;;;;14.60;8.20;;;;;;;7.11;86.93;98684.69;31195229;28;20112;-76
2022/04/08 03:40:31;;;;;;;15.83;7.37;;;;;;;7.36;83.43;98694.03;31190645;28;20532;-76
2022/04/08 03:55:34;;;;;;;21.03;9.50;;;;;;;7.62;84.01;98695.56;31204474;28;20148;-75
2022/04/08 04:10:36;;;;;;;14.43;7.83;;;;;;;7.69;84.78;98705.41;31195287;28;20085;-76
2022/04/08 04:25:38;;;;;;;13.83;8.03;;;;;;;8.16;83.44;98683.84;31201687;28;20045;-76
2022/04/08 04:40:40;;;;;;;18.83;9.53;;;;;;;8.20;85.07;98684.50;31194787;28;20390;-75
2022/04/08 04:55:42;;;;;;;18.67;8.73;;;;;;;8.47;84.17;98673.97;31196554;28;20064;-75
2022/04/08 05:10:44;;;;;;;20.37;9.97;;;;;;;9.28;82.29;98682.31;31187243;28;20112;-76
2022/04/08 05:25:46;;;;;;;18.43;8.80;;;;;;;9.81;79.15;98683.00;31170761;28;20049;-75
2022/04/08 05:40:49;;;;;;;16.97;9.17;;;;;;;10.15;78.35;98671.22;31219344;28;20083;-76
2022/04/08 05:55:51;;;;;;;19.07;9.03;;;;;;;11.31;74.53;98666.66;31219007;28;20076;-78
2022/04/08 06:10:54;;;;;;;11.33;6.93;;;;;;;12.35;71.79;98644.97;31094353;28;20045;-76
2022/04/08 06:25:56;;;;;;;11.50;5.60;;;;;;;13.77;67.03;98632.03;31081957;28;20108;-71
2022/04/08 06:40:58;;;;;;;10.50;5.20;;;;;;;14.71;62.17;98647.31;31088896;28;20069;-71
2022/04/08 06:56:03;;;;;;;11.13;4.20;;;;;;;14.58;62.58;98680.47;31086881;28;20050;-70
2022/04/08 07:11:05;;;;;;;8.00;3.93;;;;;;;14.86;61.15;98678.03;31219908;28;20060;-70
2022/04/08 07:26:07;;;;;;;8.57;4.57;;;;;;;15.39;59.94;98691.19;31192848;28;20165;-71
2022/04/08 07:41:10;;;;;;;9.70;4.07;;;;;;;16.05;57.15;98701.16;31195077;28;20508;-69
2022/04/08 07:56:12;;;;;;;9.97;4.73;;;;;;;15.95;56.73;98686.91;30950560;28;20623;-70
2022/04/08 08:11:15;;;;;;;8.60;4.67;;;;;;;16.94;55.44;98679.59;30940391;28;20089;-73
2022/04/08 08:26:29;;;;;;;9.20;4.33;;;;;;;15.98;56.53;98691.41;30937008;28;20055;-70
2022/04/08 08:41:31;;;;;;;6.57;4.00;;;;;;;17.64;53.55;98694.34;30935816;28;20047;-77
2022/04/08 08:56:33;;;;;;;10.57;3.78;;;;;;;17.89;51.57;98696.09;30932413;28;20042;-77
2022/04/08 09:11:36;;;;;;;7.60;3.83;;;;;;;16.87;54.16;98693.03;30930826;28;20062;-72
2022/04/08 09:26:38;;;;;;;9.10;3.47;;;;;;;16.30;54.74;98705.00;30958415;28;20050;-78
2022/04/08 09:41:43;;;;;;;10.10;4.20;;;;;;;16.42;55.21;98705.81;30946014;28;20065;-76
2022/04/08 09:56:46;;;;;;;8.77;4.13;;;;;;;17.04;54.38;98713.00;30970911;28;20702;-69
2022/04/08 10:12:05;;;;;;;8.02;4.50;;;;;;;17.77;51.62;98724.78;30954211;28;20070;-69
2022/04/08 10:27:11;;;;;;;8.63;5.27;;;;;;;16.37;54.49;98731.91;30954859;28;20076;-72
2022/04/08 10:42:23;;;;;;;11.13;5.17;;;;;;;15.67;57.84;98743.41;30969083;28;20061;-70
2022/04/08 10:57:34;;;;;;;9.13;4.33;;;;;;;15.12;59.30;98733.44;30959012;28;20042;-70
2022/04/08 11:12:48;;;;;;;11.53;4.37;;;;;;;15.26;63.41;98738.06;30920805;28;20086;-70
2022/04/08 11:27:57;;;;;;;10.57;4.70;;;;;;;15.53;63.42;98744.28;30921485;28;20092;-70
2022/04/08 11:43:00;;;;;;;8.23;4.80;;;;;;;15.07;64.94;98753.28;30943581;28;20125;-77
2022/04/08 11:58:02;;;;;;;9.57;3.83;;;;;;;14.93;68.86;98754.09;30934276;28;20417;-75
2022/04/08 12:13:29;;;;;;;11.60;4.37;;;;;;;14.85;68.34;98763.97;30949046;28;20054;-81
2022/04/08 12:28:35;;;;;;;8.73;3.93;;;;;;;14.87;69.22;98758.78;30963902;28;20065;-70
2022/04/08 12:43:37;;;;;;;;;;;;;;;14.65;69.71;98757.25;30962244;28;20588;-71
2022/04/08 12:58:39;;;;;;;9.83;4.17;;;;;;;14.11;70.53;98747.84;30929817;28;19930;-77
2022/04/08 13:13:45;;;;;;;10.40;4.57;;;;;;;13.55;70.79;98735.31;30997656;28;20085;-89
2022/04/08 13:28:56;;;;;;;10.83;4.00;;;;;;;13.11;74.10;98746.16;30920967;28;20050;-70
2022/04/08 13:43:59;;;;;;;8.30;4.27;;;;;;;12.89;73.85;98719.28;30942690;28;20100;-78
2022/04/08 13:59:01;;;;;;;15.50;4.00;;;;;;;12.45;74.83;98728.06;30947057;28;20106;-71
2022/04/08 14:14:04;;;;;;;11.07;4.53;;;;;;;12.52;74.71;98740.56;30959030;28;20084;-76
2022/04/08 14:29:07;;;;;;;8.33;4.40;;;;;;;12.54;73.96;98760.66;30938396;28;20050;-70
2022/04/08 14:44:12;;;;;;;6.27;4.03;;;;;;;12.60;73.89;98774.38;30965221;28;20077;-75
2022/04/08 14:59:15;;;;;;;5.20;2.90;;;;;;;12.54;73.60;98771.53;30957381;28;20046;-69
2022/04/08 15:14:17;;;;;;;6.77;3.30;;;;;;;12.31;74.13;98764.13;30936526;28;20532;-79
2022/04/08 15:29:27;;;;;;;5.97;3.10;;;;;;;12.17;75.46;98786.56;30949453;28;20108;-75
2022/04/08 15:44:30;;;;;;;6.10;3.70;;;;;;;12.11;81.05;98793.84;30941122;28;20089;-80
2022/04/08 15:59:32;;;;;;;8.37;3.70;;;;;;;11.85;86.13;98813.25;30942971;28;20055;-76
2022/04/08 16:14:35;;;;;;;12.97;4.73;;;;;;;11.82;87.51;98851.50;30961582;28;20061;-78
2022/04/08 16:29:37;;;;;;;8.63;3.93;;;;;;;11.78;87.95;98881.56;30947917;28;20101;-73
2022/04/08 16:44:40;;;;;;;28.50;11.30;;;;;;;11.65;89.47;98902.69;30942214;28;20051;-75
2022/04/08 16:59:44;;;;;;;10.40;4.80;;;;;;;11.50;91.27;98927.00;30961323;28;20495;-84
2022/04/08 17:15:04;;;;;;;13.80;5.50;;;;;;;11.43;93.50;98930.03;30990370;28;20556;-80
2022/04/08 17:30:08;;;;;;;16.53;6.60;;;;;;;11.26;96.66;98955.97;30984193;28;20514;-81
2022/04/08 17:45:19;;;;;;;13.20;7.47;;;;;;;10.92;99.99;98992.22;30947912;28;20057;-81
2022/04/08 18:00:26;;;;;;;17.87;8.53;;;;;;;10.73;100.00;99001.50;30975848;28;20753;-82
2022/04/08 18:15:29;;;;;;;;;;;;;;;10.36;100.00;99011.41;30972333;28;20061;-80
2022/04/08 18:30:32;;;;;;;24.60;11.47;;;;;;;10.06;100.00;99039.94;30965579;28;19925;-81
2022/04/08 18:45:37;;;;;;;35.60;15.70;;;;;;;9.89;100.00;99069.94;30969538;28;20046;-81
2022/04/08 19:00:41;;;;;;;17.03;7.10;;;;;;;9.97;100.00;99088.66;30971274;28;20062;-82
2022/04/08 19:15:45;;;;;;;10.57;6.00;;;;;;;10.04;100.00;99101.97;30960967;28;20578;-81
2022/04/08 19:30:50;;;;;;;10.75;5.38;;;;;;;10.08;100.00;99132.44;30957990;28;20117;-81
2022/04/08 19:45:53;;;;;;;11.17;4.87;;;;;;;10.05;100.00;99130.59;31033415;28;20047;-82
2022/04/08 20:00:55;;;;;;;7.37;4.50;;;;;;;10.06;100.00;99135.59;30974054;28;20058;-81
2022/04/08 20:15:58;;;;;;;8.40;3.70;;;;;;;10.11;100.00;99174.97;30962895;28;20410;-81
2022/04/08 20:31:01;;;;;;;7.57;3.60;;;;;;;10.17;100.00;99200.31;30953260;28;20449;-80
2022/04/08 20:46:03;;;;;;;6.67;4.10;;;;;;;10.10;100.00;99217.59;30976686;28;20054;-81
2022/04/08 21:01:05;;;;;;;11.40;4.63;;;;;;;9.55;100.00;99256.81;30920931;28;20060;-81
2022/04/08 21:16:07;;;;;;;12.13;5.20;;;;;;;9.12;100.00;99271.56;30982784;28;21064;-80
2022/04/08 21:31:10;;;;;;;12.67;5.27;;;;;;;8.94;100.00;99292.16;30995365;28;20080;-80
2022/04/08 21:46:12;;;;;;;11.43;4.53;;;;;;;8.81;100.00;99319.16;30951538;28;20142;-80
2022/04/08 22:01:15;;;;;;;8.27;4.47;;;;;;;8.72;100.00;99319.78;30965895;28;20088;-81
2022/04/08 22:16:17;;;;;;;8.40;3.93;;;;;;;8.61;100.00;99330.09;31033247;28;21605;-80
2022/04/08 22:31:19;;;;;;;12.80;4.23;;;;;;;8.52;100.00;99344.19;31002484;28;20141;-80
2022/04/08 22:46:22;;;;;;;10.57;5.03;;;;;;;8.28;100.00;99344.72;30992825;28;20050;-80
2022/04/08 23:01:26;;;;;;;14.27;5.33;;;;;;;8.08;100.00;99364.47;30959129;28;20394;-78
2022/04/08 23:16:28;;;;;;;18.70;6.50;;;;;;;8.03;100.00;99400.09;30959368;28;20051;-80
2022/04/08 23:31:32;;;;;;;10.97;4.77;;;;;;;8.04;100.00;99406.25;30983373;28;20084;-80
2022/04/08 23:46:34;;;;;;;8.27;4.23;;;;;;;8.02;100.00;99424.88;30937105;28;20104;-79
